TimeCEST,TemperatureF,Dew PointF,Humidity,Sea Level PressureIn,VisibilityMPH,Wind Direction,Wind SpeedMPH,Gust SpeedMPH,PrecipitationIn,Events,Conditions,WindDirDegrees,DateUTC
6:00 AM,35.6,33.8,93,29.92,6.2,West,3.5,-,N/A,,Partly Cloudy,270,2012-10-15 04:00:00
6:30 AM,33.8,33.8,100,29.92,-9999.0,WSW,3.5,-,N/A,,Clear,250,2012-10-15 04:30:00
7:00 AM,35.6,33.8,93,29.95,-9999.0,Variable,1.2,-,N/A,,Clear,0,2012-10-15 05:00:00
7:30 AM,33.8,33.8,100,29.95,-9999.0,SW,3.5,-,N/A,,Clear,220,2012-10-15 05:30:00
8:00 AM,33.8,32.0,93,29.95,-9999.0,WSW,3.5,-,N/A,,Clear,250,2012-10-15 06:00:00
8:30 AM,35.6,33.8,93,29.95,-9999.0,West,2.3,-,N/A,,Clear,270,2012-10-15 06:30:00
9:00 AM,35.6,35.6,100,29.98,-9999.0,WNW,3.5,-,N/A,,Clear,290,2012-10-15 07:00:00
9:30 AM,39.2,37.4,93,29.98,-9999.0,WNW,3.5,-,N/A,,Clear,300,2012-10-15 07:30:00
10:00 AM,42.8,39.2,87,29.98,-9999.0,WNW,4.6,-,N/A,,Clear,300,2012-10-15 08:00:00
10:30 AM,42.8,39.2,87,29.98,-9999.0,NW,3.5,-,N/A,,Clear,310,2012-10-15 08:30:00
11:00 AM,44.6,41.0,87,30.01,-9999.0,Variable,1.2,-,N/A,,Clear,0,2012-10-15 09:00:00
11:30 AM,46.4,41.0,81,30.01,-9999.0,WSW,1.2,-,N/A,,Clear,250,2012-10-15 09:30:00
12:00 PM,48.2,41.0,76,30.01,-9999.0,SSE,2.3,-,N/A,,Clear,150,2012-10-15 10:00:00
12:30 PM,50.0,41.0,71,30.01,-9999.0,Variable,1.2,-,N/A,,Clear,0,2012-10-15 10:30:00
1:00 PM,51.8,41.0,67,30.01,-9999.0,WSW,4.6,-,N/A,,Clear,240,2012-10-15 11:00:00
1:30 PM,55.4,41.0,58,30.01,-9999.0,South,3.5,-,N/A,,Clear,180,2012-10-15 11:30:00
2:00 PM,53.6,39.2,58,30.01,6.2,WSW,5.8,-,N/A,,Scattered Clouds,240,2012-10-15 12:00:00
2:30 PM,57.2,39.2,51,30.01,6.2,SW,5.8,-,N/A,,Scattered Clouds,220,2012-10-15 12:30:00
3:00 PM,55.4,37.4,51,29.98,6.2,SW,6.9,-,N/A,,Scattered Clouds,220,2012-10-15 13:00:00
3:30 PM,55.4,37.4,51,29.98,6.2,SW,9.2,-,N/A,,Scattered Clouds,220,2012-10-15 13:30:00
4:00 PM,55.4,35.6,47,29.98,6.2,West,6.9,-,N/A,,Scattered Clouds,280,2012-10-15 14:00:00
4:30 PM,57.2,33.8,41,29.98,6.2,West,9.2,-,N/A,,Scattered Clouds,280,2012-10-15 14:30:00
5:00 PM,57.2,33.8,41,29.98,6.2,West,9.2,-,N/A,,Partly Cloudy,260,2012-10-15 15:00:00
5:30 PM,57.2,33.8,41,29.98,-9999.0,WSW,9.2,-,N/A,,Clear,250,2012-10-15 15:30:00
6:00 PM,57.2,33.8,41,29.98,-9999.0,West,8.1,-,N/A,,Clear,270,2012-10-15 16:00:00
6:30 PM,57.2,33.8,41,29.98,-9999.0,WSW,9.2,-,N/A,,Clear,250,2012-10-15 16:30:00
7:00 PM,57.2,33.8,41,29.98,-9999.0,WSW,10.4,-,N/A,,Clear,240,2012-10-15 17:00:00
8:00 PM,51.8,35.6,54,29.98,-9999.0,SW,6.9,-,N/A,,Clear,230,2012-10-15 18:00:00
8:30 PM,50.0,35.6,58,30.01,-9999.0,SW,5.8,-,N/A,,Clear,220,2012-10-15 18:30:00
9:00 PM,50.0,35.6,58,30.01,-9999.0,SW,8.1,-,N/A,,Clear,230,2012-10-15 19:00:00
9:30 PM,48.2,35.6,62,30.01,-9999.0,SW,8.1,-,N/A,,Clear,230,2012-10-15 19:30:00
10:00 PM,48.2,35.6,62,30.01,-9999.0,WSW,6.9,-,N/A,,Clear,240,2012-10-15 20:00:00
10:30 PM,48.2,37.4,66,30.01,-9999.0,WSW,8.1,-,N/A,,Clear,240,2012-10-15 20:30:00